sensor_id;sensor_type;location;lat;lon;timestamp;P1;durP1;ratioP1;P2;durP2;ratioP2
5754;SDS011;2902;42.130;24.732;2022-12-07T00:01:51;35.17;;;22.07;;
5754;SDS011;2902;42.130;24.732;2022-12-07T00:04:18;36.47;;;22.50;;
5754;SDS011;2902;42.130;24.732;2022-12-07T00:06:45;43.53;;;24.80;;
5754;SDS011;2902;42.130;24.732;2022-12-07T00:09:13;33.47;;;20.70;;
5754;SDS011;2902;42.130;24.732;2022-12-07T00:11:42;39.03;;;19.87;;
5754;SDS011;2902;42.130;24.732;2022-12-07T00:14:12;41.93;;;20.77;;
5754;SDS011;2902;42.130;24.732;2022-12-07T00:16:40;33.03;;;19.13;;
5754;SDS011;2902;42.130;24.732;2022-12-07T00:19:09;26.97;;;17.77;;
5754;SDS011;2902;42.130;24.732;2022-12-07T00:21:36;27.50;;;15.43;;
5754;SDS011;2902;42.130;24.732;2022-12-07T00:24:04;27.43;;;15.63;;
5754;SDS011;2902;42.130;24.732;2022-12-07T00:26:32;20.53;;;12.93;;
5754;SDS011;2902;42.130;24.732;2022-12-07T00:29:00;17.93;;;11.20;;
5754;SDS011;2902;42.130;24.732;2022-12-07T00:31:31;17.43;;;11.03;;
5754;SDS011;2902;42.130;24.732;2022-12-07T00:34:00;12.03;;;9.73;;
5754;SDS011;2902;42.130;24.732;2022-12-07T00:36:27;18.33;;;9.73;;
5754;SDS011;2902;42.130;24.732;2022-12-07T00:38:54;15.13;;;10.93;;
5754;SDS011;2902;42.130;24.732;2022-12-07T00:41:24;17.70;;;10.67;;
5754;SDS011;2902;42.130;24.732;2022-12-07T00:43:51;15.23;;;11.43;;
5754;SDS011;2902;42.130;24.732;2022-12-07T00:46:19;18.87;;;11.90;;
5754;SDS011;2902;42.130;24.732;2022-12-07T00:48:48;21.40;;;13.07;;
5754;SDS011;2902;42.130;24.732;2022-12-07T00:51:16;18.97;;;12.83;;
5754;SDS011;2902;42.130;24.732;2022-12-07T00:53:44;20.60;;;13.67;;
5754;SDS011;2902;42.130;24.732;2022-12-07T00:56:11;31.80;;;18.07;;
5754;SDS011;2902;42.130;24.732;2022-12-07T00:58:39;34.13;;;19.57;;
5754;SDS011;2902;42.130;24.732;2022-12-07T01:01:06;38.73;;;20.40;;
5754;SDS011;2902;42.130;24.732;2022-12-07T01:03:35;40.20;;;19.03;;
5754;SDS011;2902;42.130;24.732;2022-12-07T01:06:04;34.17;;;21.03;;
5754;SDS011;2902;42.130;24.732;2022-12-07T01:08:31;55.07;;;21.33;;
5754;SDS011;2902;42.130;24.732;2022-12-07T01:10:59;43.83;;;19.70;;
5754;SDS011;2902;42.130;24.732;2022-12-07T01:13:26;42.97;;;20.40;;
5754;SDS011;2902;42.130;24.732;2022-12-07T01:15:55;40.40;;;20.63;;
5754;SDS011;2902;42.130;24.732;2022-12-07T01:18:23;43.60;;;21.23;;
5754;SDS011;2902;42.130;24.732;2022-12-07T01:20:56;39.17;;;19.53;;
5754;SDS011;2902;42.130;24.732;2022-12-07T01:23:25;45.50;;;20.33;;
5754;SDS011;2902;42.130;24.732;2022-12-07T01:25:54;43.83;;;20.30;;
5754;SDS011;2902;42.130;24.732;2022-12-07T01:28:21;40.73;;;20.90;;
5754;SDS011;2902;42.130;24.732;2022-12-07T01:30:54;40.13;;;19.20;;
5754;SDS011;2902;42.130;24.732;2022-12-07T01:33:22;38.40;;;18.93;;
5754;SDS011;2902;42.130;24.732;2022-12-07T01:35:48;36.97;;;19.37;;
5754;SDS011;2902;42.130;24.732;2022-12-07T01:38:15;36.07;;;18.67;;
5754;SDS011;2902;42.130;24.732;2022-12-07T01:40:43;37.67;;;19.50;;
5754;SDS011;2902;42.130;24.732;2022-12-07T01:43:13;38.53;;;19.60;;
5754;SDS011;2902;42.130;24.732;2022-12-07T01:45:43;45.07;;;20.80;;
5754;SDS011;2902;42.130;24.732;2022-12-07T01:48:10;34.60;;;18.43;;
5754;SDS011;2902;42.130;24.732;2022-12-07T01:50:40;35.20;;;18.77;;
5754;SDS011;2902;42.130;24.732;2022-12-07T01:53:08;38.80;;;20.03;;
5754;SDS011;2902;42.130;24.732;2022-12-07T01:55:37;39.37;;;19.20;;
5754;SDS011;2902;42.130;24.732;2022-12-07T01:58:09;42.20;;;19.30;;
5754;SDS011;2902;42.130;24.732;2022-12-07T02:00:37;35.13;;;18.40;;
5754;SDS011;2902;42.130;24.732;2022-12-07T02:03:05;37.23;;;19.67;;
5754;SDS011;2902;42.130;24.732;2022-12-07T02:05:35;40.50;;;18.00;;
5754;SDS011;2902;42.130;24.732;2022-12-07T02:08:04;36.30;;;19.07;;
5754;SDS011;2902;42.130;24.732;2022-12-07T02:10:32;37.97;;;18.63;;
5754;SDS011;2902;42.130;24.732;2022-12-07T02:13:00;34.13;;;18.43;;
5754;SDS011;2902;42.130;24.732;2022-12-07T02:15:35;34.47;;;17.87;;
5754;SDS011;2902;42.130;24.732;2022-12-07T02:18:25;25.77;;;16.37;;
5754;SDS011;2902;42.130;24.732;2022-12-07T02:21:02;26.93;;;15.67;;
5754;SDS011;2902;42.130;24.732;2022-12-07T02:27:07;26.90;;;14.50;;
5754;SDS011;2902;42.130;24.732;2022-12-07T02:29:49;24.50;;;13.90;;
5754;SDS011;2902;42.130;24.732;2022-12-07T02:32:21;20.27;;;13.90;;
5754;SDS011;2902;42.130;24.732;2022-12-07T02:34:53;24.03;;;13.77;;
5754;SDS011;2902;42.130;24.732;2022-12-07T02:37:29;25.47;;;13.63;;
5754;SDS011;2902;42.130;24.732;2022-12-07T02:40:05;20.13;;;12.67;;
5754;SDS011;2902;42.130;24.732;2022-12-07T02:42:37;22.50;;;12.77;;
5754;SDS011;2902;42.130;24.732;2022-12-07T02:45:10;16.57;;;12.13;;
5754;SDS011;2902;42.130;24.732;2022-12-07T02:47:40;21.07;;;14.07;;
5754;SDS011;2902;42.130;24.732;2022-12-07T02:50:09;31.70;;;17.10;;
5754;SDS011;2902;42.130;24.732;2022-12-07T02:52:37;25.50;;;15.43;;
5754;SDS011;2902;42.130;24.732;2022-12-07T02:55:04;23.43;;;14.80;;
5754;SDS011;2902;42.130;24.732;2022-12-07T02:57:36;24.73;;;13.87;;
5754;SDS011;2902;42.130;24.732;2022-12-07T03:00:17;26.40;;;14.50;;
5754;SDS011;2902;42.130;24.732;2022-12-07T03:02:48;28.97;;;13.90;;
5754;SDS011;2902;42.130;24.732;2022-12-07T03:05:31;21.30;;;11.97;;
5754;SDS011;2902;42.130;24.732;2022-12-07T03:08:12;21.03;;;12.67;;
5754;SDS011;2902;42.130;24.732;2022-12-07T03:10:42;24.57;;;12.20;;
5754;SDS011;2902;42.130;24.732;2022-12-07T03:13:19;13.93;;;11.63;;
5754;SDS011;2902;42.130;24.732;2022-12-07T03:15:55;17.00;;;11.40;;
5754;SDS011;2902;42.130;24.732;2022-12-07T03:18:29;40.73;;;24.60;;
5754;SDS011;2902;42.130;24.732;2022-12-07T03:20:59;43.10;;;21.83;;
5754;SDS011;2902;42.130;24.732;2022-12-07T03:23:29;39.53;;;19.47;;
5754;SDS011;2902;42.130;24.732;2022-12-07T03:26:00;34.37;;;18.37;;
5754;SDS011;2902;42.130;24.732;2022-12-07T03:28:31;19.13;;;12.70;;
5754;SDS011;2902;42.130;24.732;2022-12-07T03:31:02;15.43;;;11.87;;
5754;SDS011;2902;42.130;24.732;2022-12-07T03:33:36;19.00;;;10.73;;
5754;SDS011;2902;42.130;24.732;2022-12-07T03:36:08;19.17;;;9.83;;
5754;SDS011;2902;42.130;24.732;2022-12-07T03:38:42;15.97;;;10.57;;
5754;SDS011;2902;42.130;24.732;2022-12-07T03:41:14;19.93;;;10.23;;
5754;SDS011;2902;42.130;24.732;2022-12-07T03:43:48;15.03;;;8.63;;
5754;SDS011;2902;42.130;24.732;2022-12-07T03:46:19;20.13;;;10.60;;
5754;SDS011;2902;42.130;24.732;2022-12-07T03:48:54;15.73;;;10.40;;
5754;SDS011;2902;42.130;24.732;2022-12-07T03:51:26;13.97;;;11.03;;
5754;SDS011;2902;42.130;24.732;2022-12-07T03:53:59;22.37;;;12.87;;
5754;SDS011;2902;42.130;24.732;2022-12-07T03:56:33;24.73;;;15.60;;
5754;SDS011;2902;42.130;24.732;2022-12-07T03:59:01;18.87;;;13.77;;
5754;SDS011;2902;42.130;24.732;2022-12-07T04:01:29;17.83;;;12.43;;
5754;SDS011;2902;42.130;24.732;2022-12-07T04:03:57;19.70;;;10.40;;
5754;SDS011;2902;42.130;24.732;2022-12-07T04:06:24;17.60;;;11.03;;
5754;SDS011;2902;42.130;24.732;2022-12-07T04:08:50;16.23;;;10.37;;
5754;SDS011;2902;42.130;24.732;2022-12-07T04:11:17;17.77;;;10.63;;
5754;SDS011;2902;42.130;24.732;2022-12-07T04:13:44;11.93;;;10.00;;
5754;SDS011;2902;42.130;24.732;2022-12-07T04:16:29;18.43;;;12.97;;
5754;SDS011;2902;42.130;24.732;2022-12-07T04:18:56;21.80;;;15.40;;
5754;SDS011;2902;42.130;24.732;2022-12-07T04:21:23;23.60;;;14.67;;
5754;SDS011;2902;42.130;24.732;2022-12-07T04:23:49;28.93;;;11.87;;
5754;SDS011;2902;42.130;24.732;2022-12-07T04:26:16;23.63;;;10.13;;
5754;SDS011;2902;42.130;24.732;2022-12-07T04:28:43;20.90;;;10.27;;
5754;SDS011;2902;42.130;24.732;2022-12-07T04:31:09;14.80;;;10.33;;
5754;SDS011;2902;42.130;24.732;2022-12-07T04:33:37;21.77;;;9.97;;
5754;SDS011;2902;42.130;24.732;2022-12-07T04:36:04;20.73;;;9.93;;
5754;SDS011;2902;42.130;24.732;2022-12-07T04:38:31;24.07;;;12.73;;
5754;SDS011;2902;42.130;24.732;2022-12-07T04:40:59;17.57;;;11.03;;
5754;SDS011;2902;42.130;24.732;2022-12-07T04:43:30;18.30;;;11.83;;
5754;SDS011;2902;42.130;24.732;2022-12-07T04:45:57;27.47;;;12.33;;
5754;SDS011;2902;42.130;24.732;2022-12-07T04:48:24;20.50;;;11.83;;
5754;SDS011;2902;42.130;24.732;2022-12-07T04:50:52;24.20;;;10.97;;
5754;SDS011;2902;42.130;24.732;2022-12-07T04:53:19;20.23;;;11.57;;
5754;SDS011;2902;42.130;24.732;2022-12-07T04:55:46;22.20;;;11.80;;
5754;SDS011;2902;42.130;24.732;2022-12-07T04:58:13;22.70;;;12.87;;
5754;SDS011;2902;42.130;24.732;2022-12-07T05:00:40;20.77;;;12.80;;
5754;SDS011;2902;42.130;24.732;2022-12-07T05:03:07;15.57;;;11.87;;
5754;SDS011;2902;42.130;24.732;2022-12-07T05:05:33;26.20;;;12.60;;
5754;SDS011;2902;42.130;24.732;2022-12-07T05:08:01;57.33;;;14.07;;
5754;SDS011;2902;42.130;24.732;2022-12-07T05:10:28;32.67;;;12.47;;
5754;SDS011;2902;42.130;24.732;2022-12-07T05:12:55;22.60;;;12.73;;
5754;SDS011;2902;42.130;24.732;2022-12-07T05:15:22;25.80;;;13.57;;
5754;SDS011;2902;42.130;24.732;2022-12-07T05:17:48;37.00;;;13.80;;
5754;SDS011;2902;42.130;24.732;2022-12-07T05:20:17;57.87;;;14.87;;
5754;SDS011;2902;42.130;24.732;2022-12-07T05:22:44;45.90;;;15.90;;
5754;SDS011;2902;42.130;24.732;2022-12-07T05:25:12;40.30;;;15.00;;
5754;SDS011;2902;42.130;24.732;2022-12-07T05:27:38;44.90;;;14.70;;
5754;SDS011;2902;42.130;24.732;2022-12-07T05:30:05;44.33;;;14.83;;
5754;SDS011;2902;42.130;24.732;2022-12-07T05:32:33;38.77;;;16.67;;
5754;SDS011;2902;42.130;24.732;2022-12-07T05:35:01;37.83;;;17.67;;
5754;SDS011;2902;42.130;24.732;2022-12-07T05:37:28;60.70;;;22.17;;
5754;SDS011;2902;42.130;24.732;2022-12-07T05:39:54;48.80;;;22.13;;
5754;SDS011;2902;42.130;24.732;2022-12-07T05:42:22;51.80;;;22.87;;
5754;SDS011;2902;42.130;24.732;2022-12-07T05:44:49;50.97;;;23.57;;
5754;SDS011;2902;42.130;24.732;2022-12-07T05:47:16;78.17;;;26.13;;
5754;SDS011;2902;42.130;24.732;2022-12-07T05:49:43;78.40;;;30.73;;
5754;SDS011;2902;42.130;24.732;2022-12-07T05:52:09;52.33;;;27.67;;
5754;SDS011;2902;42.130;24.732;2022-12-07T05:54:36;65.00;;;31.80;;
5754;SDS011;2902;42.130;24.732;2022-12-07T05:57:03;77.93;;;32.77;;
5754;SDS011;2902;42.130;24.732;2022-12-07T05:59:31;97.40;;;31.43;;
5754;SDS011;2902;42.130;24.732;2022-12-07T06:01:57;67.47;;;30.77;;
5754;SDS011;2902;42.130;24.732;2022-12-07T06:04:27;54.77;;;27.80;;
5754;SDS011;2902;42.130;24.732;2022-12-07T06:06:55;50.93;;;26.53;;
5754;SDS011;2902;42.130;24.732;2022-12-07T06:09:22;104.37;;;28.90;;
5754;SDS011;2902;42.130;24.732;2022-12-07T06:11:50;66.80;;;26.47;;
5754;SDS011;2902;42.130;24.732;2022-12-07T06:14:35;73.87;;;26.20;;
5754;SDS011;2902;42.130;24.732;2022-12-07T06:17:02;43.90;;;23.33;;
5754;SDS011;2902;42.130;24.732;2022-12-07T06:19:29;44.93;;;25.37;;
5754;SDS011;2902;42.130;24.732;2022-12-07T06:21:56;123.33;;;42.70;;
5754;SDS011;2902;42.130;24.732;2022-12-07T06:24:23;98.90;;;44.87;;
5754;SDS011;2902;42.130;24.732;2022-12-07T06:26:49;103.37;;;38.70;;
5754;SDS011;2902;42.130;24.732;2022-12-07T06:29:16;80.20;;;34.67;;
5754;SDS011;2902;42.130;24.732;2022-12-07T06:31:45;58.63;;;28.07;;
5754;SDS011;2902;42.130;24.732;2022-12-07T06:34:13;54.43;;;26.53;;
5754;SDS011;2902;42.130;24.732;2022-12-07T06:36:41;83.13;;;25.50;;
5754;SDS011;2902;42.130;24.732;2022-12-07T06:39:08;104.33;;;27.30;;
5754;SDS011;2902;42.130;24.732;2022-12-07T06:41:36;53.10;;;25.37;;
5754;SDS011;2902;42.130;24.732;2022-12-07T06:44:03;51.03;;;25.90;;
5754;SDS011;2902;42.130;24.732;2022-12-07T06:46:30;48.40;;;23.13;;
5754;SDS011;2902;42.130;24.732;2022-12-07T06:48:58;66.07;;;27.37;;
5754;SDS011;2902;42.130;24.732;2022-12-07T06:51:25;70.93;;;25.97;;
5754;SDS011;2902;42.130;24.732;2022-12-07T06:53:52;54.67;;;24.13;;
5754;SDS011;2902;42.130;24.732;2022-12-07T06:56:18;63.40;;;27.80;;
5754;SDS011;2902;42.130;24.732;2022-12-07T06:58:45;81.13;;;25.93;;
5754;SDS011;2902;42.130;24.732;2022-12-07T07:01:12;52.30;;;21.47;;
5754;SDS011;2902;42.130;24.732;2022-12-07T07:03:41;93.33;;;28.40;;
5754;SDS011;2902;42.130;24.732;2022-12-07T07:06:09;76.00;;;30.73;;
5754;SDS011;2902;42.130;24.732;2022-12-07T07:08:36;90.80;;;28.67;;
5754;SDS011;2902;42.130;24.732;2022-12-07T07:11:04;60.30;;;25.20;;
5754;SDS011;2902;42.130;24.732;2022-12-07T07:13:31;49.90;;;22.80;;
5754;SDS011;2902;42.130;24.732;2022-12-07T07:15:58;50.73;;;27.27;;
5754;SDS011;2902;42.130;24.732;2022-12-07T07:18:25;69.27;;;33.40;;
5754;SDS011;2902;42.130;24.732;2022-12-07T07:20:53;76.47;;;25.57;;
5754;SDS011;2902;42.130;24.732;2022-12-07T07:23:21;60.07;;;25.27;;
5754;SDS011;2902;42.130;24.732;2022-12-07T07:25:48;62.57;;;27.00;;
5754;SDS011;2902;42.130;24.732;2022-12-07T07:28:15;56.73;;;27.17;;
5754;SDS011;2902;42.130;24.732;2022-12-07T07:30:42;47.53;;;27.87;;
5754;SDS011;2902;42.130;24.732;2022-12-07T07:33:09;58.93;;;27.97;;
5754;SDS011;2902;42.130;24.732;2022-12-07T07:35:37;56.17;;;27.40;;
5754;SDS011;2902;42.130;24.732;2022-12-07T07:38:04;59.50;;;27.07;;
5754;SDS011;2902;42.130;24.732;2022-12-07T07:40:32;60.80;;;26.83;;
5754;SDS011;2902;42.130;24.732;2022-12-07T07:42:59;84.70;;;29.37;;
5754;SDS011;2902;42.130;24.732;2022-12-07T07:45:26;49.27;;;28.67;;
5754;SDS011;2902;42.130;24.732;2022-12-07T07:47:53;104.77;;;29.83;;
5754;SDS011;2902;42.130;24.732;2022-12-07T07:50:20;64.07;;;30.27;;
5754;SDS011;2902;42.130;24.732;2022-12-07T07:52:47;125.63;;;35.40;;
5754;SDS011;2902;42.130;24.732;2022-12-07T07:55:15;43.77;;;23.53;;
5754;SDS011;2902;42.130;24.732;2022-12-07T07:57:43;57.43;;;24.63;;
5754;SDS011;2902;42.130;24.732;2022-12-07T08:00:10;44.33;;;22.87;;
5754;SDS011;2902;42.130;24.732;2022-12-07T08:02:39;121.20;;;25.70;;
5754;SDS011;2902;42.130;24.732;2022-12-07T08:05:07;78.40;;;24.43;;
5754;SDS011;2902;42.130;24.732;2022-12-07T08:07:34;44.87;;;23.27;;
5754;SDS011;2902;42.130;24.732;2022-12-07T08:10:01;47.40;;;21.20;;
5754;SDS011;2902;42.130;24.732;2022-12-07T08:12:28;39.30;;;21.53;;
5754;SDS011;2902;42.130;24.732;2022-12-07T08:14:56;39.73;;;19.87;;
5754;SDS011;2902;42.130;24.732;2022-12-07T08:17:23;34.53;;;20.03;;
5754;SDS011;2902;42.130;24.732;2022-12-07T08:19:50;44.23;;;20.67;;
5754;SDS011;2902;42.130;24.732;2022-12-07T08:22:16;53.63;;;20.73;;
5754;SDS011;2902;42.130;24.732;2022-12-07T08:24:44;50.40;;;20.27;;
5754;SDS011;2902;42.130;24.732;2022-12-07T08:27:12;69.13;;;21.57;;
5754;SDS011;2902;42.130;24.732;2022-12-07T08:29:39;52.03;;;20.87;;
5754;SDS011;2902;42.130;24.732;2022-12-07T08:32:07;38.20;;;21.33;;
5754;SDS011;2902;42.130;24.732;2022-12-07T08:34:33;38.60;;;20.07;;
5754;SDS011;2902;42.130;24.732;2022-12-07T08:37:00;33.73;;;20.20;;
5754;SDS011;2902;42.130;24.732;2022-12-07T08:39:27;39.77;;;19.57;;
5754;SDS011;2902;42.130;24.732;2022-12-07T08:41:54;30.70;;;19.23;;
5754;SDS011;2902;42.130;24.732;2022-12-07T08:44:21;49.93;;;21.37;;
5754;SDS011;2902;42.130;24.732;2022-12-07T08:46:48;43.03;;;20.53;;
5754;SDS011;2902;42.130;24.732;2022-12-07T08:49:19;34.53;;;21.33;;
5754;SDS011;2902;42.130;24.732;2022-12-07T08:51:49;42.63;;;23.13;;
5754;SDS011;2902;42.130;24.732;2022-12-07T08:54:16;54.90;;;22.13;;
5754;SDS011;2902;42.130;24.732;2022-12-07T08:56:45;35.17;;;22.17;;
5754;SDS011;2902;42.130;24.732;2022-12-07T08:59:14;42.60;;;21.60;;
5754;SDS011;2902;42.130;24.732;2022-12-07T09:01:43;35.07;;;20.70;;
5754;SDS011;2902;42.130;24.732;2022-12-07T09:04:11;43.33;;;22.87;;
5754;SDS011;2902;42.130;24.732;2022-12-07T09:06:39;58.33;;;26.93;;
5754;SDS011;2902;42.130;24.732;2022-12-07T09:09:05;41.03;;;22.53;;
5754;SDS011;2902;42.130;24.732;2022-12-07T09:11:33;36.90;;;22.60;;
5754;SDS011;2902;42.130;24.732;2022-12-07T09:14:00;36.37;;;22.80;;
5754;SDS011;2902;42.130;24.732;2022-12-07T09:16:27;34.70;;;22.17;;
5754;SDS011;2902;42.130;24.732;2022-12-07T09:18:53;115.97;;;30.37;;
5754;SDS011;2902;42.130;24.732;2022-12-07T09:21:20;40.37;;;22.97;;
5754;SDS011;2902;42.130;24.732;2022-12-07T09:23:48;46.93;;;24.33;;
5754;SDS011;2902;42.130;24.732;2022-12-07T09:26:15;42.27;;;24.53;;
5754;SDS011;2902;42.130;24.732;2022-12-07T09:28:42;49.90;;;27.27;;
5754;SDS011;2902;42.130;24.732;2022-12-07T09:31:08;45.53;;;23.07;;
5754;SDS011;2902;42.130;24.732;2022-12-07T09:33:35;40.23;;;21.43;;
5754;SDS011;2902;42.130;24.732;2022-12-07T09:36:03;31.73;;;18.90;;
5754;SDS011;2902;42.130;24.732;2022-12-07T09:38:30;32.70;;;18.60;;
5754;SDS011;2902;42.130;24.732;2022-12-07T09:40:59;27.57;;;16.53;;
5754;SDS011;2902;42.130;24.732;2022-12-07T09:43:30;31.27;;;17.03;;
5754;SDS011;2902;42.130;24.732;2022-12-07T09:45:57;32.03;;;18.43;;
5754;SDS011;2902;42.130;24.732;2022-12-07T09:48:25;34.20;;;20.87;;
5754;SDS011;2902;42.130;24.732;2022-12-07T09:50:57;36.80;;;21.87;;
5754;SDS011;2902;42.130;24.732;2022-12-07T09:53:26;138.30;;;86.00;;
5754;SDS011;2902;42.130;24.732;2022-12-07T09:55:56;35.53;;;22.57;;
5754;SDS011;2902;42.130;24.732;2022-12-07T09:58:25;39.03;;;23.90;;
5754;SDS011;2902;42.130;24.732;2022-12-07T10:00:55;47.73;;;22.77;;
5754;SDS011;2902;42.130;24.732;2022-12-07T10:03:25;34.90;;;20.60;;
5754;SDS011;2902;42.130;24.732;2022-12-07T10:05:52;34.00;;;20.43;;
5754;SDS011;2902;42.130;24.732;2022-12-07T10:08:19;35.60;;;19.30;;
5754;SDS011;2902;42.130;24.732;2022-12-07T10:10:48;32.60;;;18.90;;
5754;SDS011;2902;42.130;24.732;2022-12-07T10:13:19;37.80;;;18.00;;
5754;SDS011;2902;42.130;24.732;2022-12-07T10:15:50;26.83;;;18.10;;
5754;SDS011;2902;42.130;24.732;2022-12-07T10:18:29;31.23;;;19.13;;
5754;SDS011;2902;42.130;24.732;2022-12-07T10:21:01;33.43;;;19.80;;
5754;SDS011;2902;42.130;24.732;2022-12-07T10:23:30;34.27;;;21.50;;
5754;SDS011;2902;42.130;24.732;2022-12-07T10:25:56;37.77;;;20.97;;
5754;SDS011;2902;42.130;24.732;2022-12-07T10:28:27;49.73;;;22.40;;
5754;SDS011;2902;42.130;24.732;2022-12-07T10:31:02;33.67;;;18.80;;
5754;SDS011;2902;42.130;24.732;2022-12-07T10:33:48;30.83;;;18.73;;
5754;SDS011;2902;42.130;24.732;2022-12-07T10:36:17;49.50;;;21.70;;
5754;SDS011;2902;42.130;24.732;2022-12-07T10:38:48;53.77;;;22.83;;
5754;SDS011;2902;42.130;24.732;2022-12-07T10:41:16;36.17;;;22.43;;
5754;SDS011;2902;42.130;24.732;2022-12-07T10:43:47;47.77;;;22.57;;
5754;SDS011;2902;42.130;24.732;2022-12-07T10:49:44;42.47;;;22.07;;
5754;SDS011;2902;42.130;24.732;2022-12-07T10:52:25;79.50;;;24.43;;
5754;SDS011;2902;42.130;24.732;2022-12-07T10:55:08;32.27;;;17.40;;
5754;SDS011;2902;42.130;24.732;2022-12-07T10:57:48;24.30;;;16.23;;
5754;SDS011;2902;42.130;24.732;2022-12-07T11:00:28;38.77;;;17.50;;
5754;SDS011;2902;42.130;24.732;2022-12-07T11:05:59;35.20;;;19.10;;
5754;SDS011;2902;42.130;24.732;2022-12-07T11:08:38;32.03;;;17.73;;
5754;SDS011;2902;42.130;24.732;2022-12-07T11:11:13;28.67;;;16.53;;
5754;SDS011;2902;42.130;24.732;2022-12-07T11:13:47;24.67;;;15.63;;
5754;SDS011;2902;42.130;24.732;2022-12-07T11:16:21;26.47;;;16.37;;
5754;SDS011;2902;42.130;24.732;2022-12-07T11:19:04;25.13;;;16.43;;
5754;SDS011;2902;42.130;24.732;2022-12-07T11:21:45;28.97;;;15.80;;
5754;SDS011;2902;42.130;24.732;2022-12-07T11:24:23;102.90;;;18.50;;
5754;SDS011;2902;42.130;24.732;2022-12-07T11:27:00;31.00;;;14.70;;
5754;SDS011;2902;42.130;24.732;2022-12-07T11:32:36;23.30;;;13.70;;
5754;SDS011;2902;42.130;24.732;2022-12-07T11:35:15;21.20;;;13.53;;
5754;SDS011;2902;42.130;24.732;2022-12-07T11:37:55;24.17;;;12.13;;
5754;SDS011;2902;42.130;24.732;2022-12-07T11:40:26;26.73;;;12.43;;
5754;SDS011;2902;42.130;24.732;2022-12-07T11:42:59;21.97;;;13.87;;
5754;SDS011;2902;42.130;24.732;2022-12-07T11:45:31;24.30;;;14.23;;
5754;SDS011;2902;42.130;24.732;2022-12-07T11:48:00;28.93;;;14.87;;
5754;SDS011;2902;42.130;24.732;2022-12-07T11:50:32;30.37;;;14.53;;
5754;SDS011;2902;42.130;24.732;2022-12-07T11:53:02;23.77;;;14.67;;
5754;SDS011;2902;42.130;24.732;2022-12-07T11:55:41;39.33;;;15.03;;
5754;SDS011;2902;42.130;24.732;2022-12-07T11:58:17;25.23;;;13.73;;
5754;SDS011;2902;42.130;24.732;2022-12-07T12:00:54;19.87;;;13.10;;
5754;SDS011;2902;42.130;24.732;2022-12-07T12:03:33;21.63;;;13.97;;
5754;SDS011;2902;42.130;24.732;2022-12-07T12:06:02;23.30;;;14.20;;
5754;SDS011;2902;42.130;24.732;2022-12-07T12:08:30;21.37;;;13.60;;
5754;SDS011;2902;42.130;24.732;2022-12-07T12:11:03;21.17;;;14.57;;
5754;SDS011;2902;42.130;24.732;2022-12-07T12:13:51;18.77;;;13.07;;
5754;SDS011;2902;42.130;24.732;2022-12-07T12:16:43;35.63;;;16.40;;
5754;SDS011;2902;42.130;24.732;2022-12-07T12:19:24;21.77;;;14.93;;
5754;SDS011;2902;42.130;24.732;2022-12-07T12:22:00;35.77;;;15.90;;
5754;SDS011;2902;42.130;24.732;2022-12-07T12:24:38;25.03;;;15.23;;
5754;SDS011;2902;42.130;24.732;2022-12-07T12:27:07;36.10;;;17.13;;
5754;SDS011;2902;42.130;24.732;2022-12-07T12:29:42;36.67;;;16.53;;
5754;SDS011;2902;42.130;24.732;2022-12-07T12:32:14;21.20;;;13.87;;
5754;SDS011;2902;42.130;24.732;2022-12-07T12:34:57;23.00;;;14.73;;
5754;SDS011;2902;42.130;24.732;2022-12-07T12:37:39;24.73;;;14.97;;
5754;SDS011;2902;42.130;24.732;2022-12-07T12:55:15;25.63;;;15.77;;
5754;SDS011;2902;42.130;24.732;2022-12-07T12:57:48;31.83;;;17.20;;
5754;SDS011;2902;42.130;24.732;2022-12-07T13:03:54;28.83;;;16.40;;
5754;SDS011;2902;42.130;24.732;2022-12-07T13:06:31;32.13;;;18.40;;
5754;SDS011;2902;42.130;24.732;2022-12-07T13:09:03;24.60;;;17.40;;
5754;SDS011;2902;42.130;24.732;2022-12-07T13:11:31;22.20;;;13.97;;
5754;SDS011;2902;42.130;24.732;2022-12-07T13:17:07;27.73;;;14.10;;
5754;SDS011;2902;42.130;24.732;2022-12-07T13:25:19;24.60;;;14.17;;
5754;SDS011;2902;42.130;24.732;2022-12-07T13:27:52;25.80;;;14.07;;
5754;SDS011;2902;42.130;24.732;2022-12-07T13:30:24;27.00;;;14.67;;
5754;SDS011;2902;42.130;24.732;2022-12-07T13:32:53;25.23;;;13.77;;
5754;SDS011;2902;42.130;24.732;2022-12-07T13:35:26;21.70;;;12.87;;
5754;SDS011;2902;42.130;24.732;2022-12-07T13:37:54;23.93;;;13.33;;
5754;SDS011;2902;42.130;24.732;2022-12-07T13:40:21;28.87;;;14.17;;
5754;SDS011;2902;42.130;24.732;2022-12-07T13:42:56;30.13;;;14.97;;
5754;SDS011;2902;42.130;24.732;2022-12-07T13:45:26;29.60;;;15.20;;
5754;SDS011;2902;42.130;24.732;2022-12-07T13:48:08;29.27;;;15.53;;
5754;SDS011;2902;42.130;24.732;2022-12-07T13:50:42;35.90;;;15.57;;
5754;SDS011;2902;42.130;24.732;2022-12-07T13:53:11;17.23;;;12.50;;
5754;SDS011;2902;42.130;24.732;2022-12-07T13:55:44;22.50;;;12.77;;
5754;SDS011;2902;42.130;24.732;2022-12-07T13:58:13;24.43;;;13.63;;
5754;SDS011;2902;42.130;24.732;2022-12-07T14:00:42;21.17;;;13.90;;
5754;SDS011;2902;42.130;24.732;2022-12-07T14:03:31;23.10;;;13.93;;
5754;SDS011;2902;42.130;24.732;2022-12-07T14:06:07;28.07;;;13.30;;
5754;SDS011;2902;42.130;24.732;2022-12-07T14:08:40;24.43;;;14.20;;
5754;SDS011;2902;42.130;24.732;2022-12-07T14:11:07;30.10;;;14.63;;
5754;SDS011;2902;42.130;24.732;2022-12-07T14:13:39;25.90;;;14.27;;
5754;SDS011;2902;42.130;24.732;2022-12-07T14:16:20;36.17;;;14.07;;
5754;SDS011;2902;42.130;24.732;2022-12-07T14:18:50;38.67;;;16.10;;
5754;SDS011;2902;42.130;24.732;2022-12-07T14:21:17;32.27;;;16.40;;
5754;SDS011;2902;42.130;24.732;2022-12-07T14:24:01;35.27;;;16.93;;
5754;SDS011;2902;42.130;24.732;2022-12-07T14:26:34;31.77;;;16.00;;
5754;SDS011;2902;42.130;24.732;2022-12-07T14:32:01;35.73;;;16.97;;
5754;SDS011;2902;42.130;24.732;2022-12-07T14:34:52;47.67;;;18.07;;
5754;SDS011;2902;42.130;24.732;2022-12-07T14:37:23;64.80;;;20.13;;
5754;SDS011;2902;42.130;24.732;2022-12-07T14:39:50;26.13;;;15.57;;
5754;SDS011;2902;42.130;24.732;2022-12-07T14:42:17;37.57;;;18.20;;
5754;SDS011;2902;42.130;24.732;2022-12-07T14:44:45;42.20;;;19.30;;
5754;SDS011;2902;42.130;24.732;2022-12-07T14:47:13;71.73;;;20.40;;
5754;SDS011;2902;42.130;24.732;2022-12-07T14:49:39;111.13;;;21.60;;
5754;SDS011;2902;42.130;24.732;2022-12-07T14:52:09;78.27;;;20.47;;
5754;SDS011;2902;42.130;24.732;2022-12-07T14:54:40;38.50;;;18.47;;
5754;SDS011;2902;42.130;24.732;2022-12-07T14:57:08;37.83;;;18.70;;
5754;SDS011;2902;42.130;24.732;2022-12-07T14:59:35;63.33;;;19.63;;
5754;SDS011;2902;42.130;24.732;2022-12-07T15:02:01;76.20;;;21.10;;
5754;SDS011;2902;42.130;24.732;2022-12-07T15:04:30;86.10;;;23.00;;
5754;SDS011;2902;42.130;24.732;2022-12-07T15:06:57;137.93;;;26.50;;
5754;SDS011;2902;42.130;24.732;2022-12-07T15:09:24;132.83;;;26.40;;
5754;SDS011;2902;42.130;24.732;2022-12-07T15:11:51;101.50;;;25.50;;
5754;SDS011;2902;42.130;24.732;2022-12-07T15:14:18;160.93;;;25.87;;
5754;SDS011;2902;42.130;24.732;2022-12-07T15:16:45;88.73;;;35.30;;
5754;SDS011;2902;42.130;24.732;2022-12-07T15:19:12;117.40;;;46.80;;
5754;SDS011;2902;42.130;24.732;2022-12-07T15:21:41;137.43;;;50.90;;
5754;SDS011;2902;42.130;24.732;2022-12-07T15:24:09;135.23;;;48.17;;
5754;SDS011;2902;42.130;24.732;2022-12-07T15:26:37;125.20;;;47.67;;
5754;SDS011;2902;42.130;24.732;2022-12-07T15:29:05;127.20;;;47.93;;
5754;SDS011;2902;42.130;24.732;2022-12-07T15:31:33;121.53;;;46.70;;
5754;SDS011;2902;42.130;24.732;2022-12-07T15:34:00;100.27;;;44.00;;